Time;durP1;ratioP1;P1;durP2;ratioP2;P2;SDS_P1;SDS_P2;PMS_P1;PMS_P2;Temp;Humidity;BMP_temperature;BMP_pressure;BME280_temperature;BME280_humidity;BME280_pressure;Samples;Min_cycle;Max_cycle;Signal;HPM_P1;HPM_P2
2023/07/20 00:02:23;;;;;;;;;;;;;;;14.75;73.67;98257.28;6168149;23;19939;-90
2023/07/20 00:04:52;;;;;;;;;;;;;;;14.73;73.76;98253.31;6172556;23;19926;-91
2023/07/20 00:07:18;;;;;;;;;;;;;;;14.70;73.91;98265.84;6171975;23;20265;-87
2023/07/20 00:09:44;;;;;;;;;;;;;;;14.72;74.34;98257.22;6171809;23;19947;-91
2023/07/20 00:12:10;;;;;;;;;;;;;;;14.69;74.44;98263.44;6196755;23;19919;-91
2023/07/20 00:14:35;;;;;;;;;;;;;;;14.67;74.07;98263.84;6170380;23;20057;-92
2023/07/20 00:17:02;;;;;;;;;;;;;;;14.67;74.09;98258.34;6170365;23;20350;-91
2023/07/20 00:19:28;;;;;;;;;;;;;;;14.66;74.02;98266.94;6171252;23;19942;-91
2023/07/20 00:22:18;;;;;;;;;;;;;;;14.63;74.07;98262.16;6195845;23;20350;-89
2023/07/20 00:24:44;;;;;;;;;;;;;;;14.64;74.14;98270.06;6172717;23;20342;-92
2023/07/20 00:27:13;;;;;;;;;;;;;;;14.61;74.66;98267.25;6172680;23;19920;-91
2023/07/20 00:29:38;;;;;;;;;;;;;;;14.57;74.54;98267.97;6197267;23;19919;-94
2023/07/20 00:32:29;;;;;;;;;;;;;;;14.59;74.47;98270.34;6222030;23;19927;-92
2023/07/20 00:34:56;;;;;;;;;;;;;;;14.56;74.59;98262.81;6196950;23;19927;-91
2023/07/20 00:37:31;;;;;;;;;;;;;;;14.57;74.42;98275.44;6173261;23;19919;-91
2023/07/20 00:39:58;;;;;;;;;;;;;;;14.56;74.42;98273.81;6198227;23;19927;-91
2023/07/20 00:42:25;;;;;;;;;;;;;;;14.56;74.20;98265.56;6173307;23;20002;-90
2023/07/20 00:44:51;;;;;;;;;;;;;;;14.51;74.67;98268.63;6195989;23;20349;-90
2023/07/20 00:47:18;;;;;;;;;;;;;;;14.47;75.08;98276.78;6195293;23;19966;-91
2023/07/20 00:49:44;;;;;;;;;;;;;;;14.48;74.80;98274.84;6167925;23;20025;-90
2023/07/20 00:52:14;;;;;;;;;;;;;;;14.47;74.70;98276.78;6168169;23;19920;-93
2023/07/20 00:54:42;;;;;;;;;;;;;;;14.48;74.75;98277.59;6215386;23;20353;-90
2023/07/20 00:57:08;;;;;;;;;;;;;;;14.44;74.89;98277.53;6165416;23;19947;-90
2023/07/20 00:59:37;;;;;;;;;;;;;;;14.47;74.93;98270.47;6165438;23;19920;-89
2023/07/20 01:02:03;;;;;;;;;;;;;;;14.43;74.94;98264.13;6190247;23;19951;-90
2023/07/20 01:04:29;;;;;;;;;;;;;;;14.46;74.82;98272.44;6166711;23;19927;-90
2023/07/20 01:07:07;;;;;;;;;;;;;;;14.44;74.79;98273.97;6166495;23;20078;-91
2023/07/20 01:09:33;;;;;;;;;;;;;;;14.42;75.07;98270.78;6166268;23;19916;-91
2023/07/20 01:12:00;;;;;;;;;;;;;;;14.38;75.27;98270.72;6190170;23;19920;-92
2023/07/20 01:14:25;;;;;;;;;;;;;;;14.38;75.39;98272.69;6165965;23;19920;-91
2023/07/20 01:16:54;;;;;;;;;;;;;;;14.36;75.57;98275.78;6167776;23;19970;-90
2023/07/20 01:19:20;;;;;;;;;;;;;;;14.33;75.60;98279.25;6217389;23;19920;-91
2023/07/20 01:21:46;;;;;;;;;;;;;;;14.31;75.59;98268.63;6165925;23;19920;-90
2023/07/20 01:24:27;;;;;;;;;;;;;;;14.33;75.81;98276.50;6165445;23;19935;-92
2023/07/20 01:27:38;;;;;;;;;;;;;;;14.32;75.61;98281.22;6126118;23;19921;-90
2023/07/20 01:30:04;;;;;;;;;;;;;;;14.36;75.57;98284.03;6077570;23;19921;-91
2023/07/20 01:32:31;;;;;;;;;;;;;;;14.39;75.25;98277.00;6076958;23;19921;-90
2023/07/20 01:34:58;;;;;;;;;;;;;;;14.38;75.40;98280.94;6101167;23;19921;-90
2023/07/20 01:37:29;;;;;;;;;;;;;;;14.41;75.15;98282.97;6100089;23;19925;-91
2023/07/20 01:39:55;;;;;;;;;;;;;;;14.38;75.18;98280.94;6124421;23;19925;-91
2023/07/20 01:42:22;;;;;;;;;;;;;;;14.36;75.52;98285.97;6077770;23;19928;-90
2023/07/20 01:45:22;;;;;;;;;;;;;;;14.36;75.70;98277.72;6125919;23;19921;-92
2023/07/20 01:47:48;;;;;;;;;;;;;;;14.36;75.88;98283.22;6119841;23;19921;-91
2023/07/20 01:50:13;;;;;;;;;;;;;;;14.35;75.46;98282.44;6121097;23;20260;-89
2023/07/20 01:52:39;;;;;;;;;;;;;;;14.34;75.51;98289.91;6073097;23;19921;-88
2023/07/20 01:55:05;;;;;;;;;;;;;;;14.40;75.36;98289.59;6096453;23;19931;-91
2023/07/20 01:57:32;;;;;;;;;;;;;;;14.42;75.22;98279.81;6130190;22;19914;-92
2023/07/20 02:00:12;;;;;;;;;;;;;;;14.43;75.01;98284.16;6230506;22;20242;-91
2023/07/20 02:02:41;;;;;;;;;;;;;;;14.45;75.24;98286.56;6220573;23;19919;-92
2023/07/20 02:05:07;;;;;;;;;;;;;;;14.49;75.14;98293.72;6220134;23;19919;-91
2023/07/20 02:07:33;;;;;;;;;;;;;;;14.51;74.99;98287.88;6218957;23;19926;-92
2023/07/20 02:09:59;;;;;;;;;;;;;;;14.48;75.04;98288.59;6194039;23;20099;-90
2023/07/20 02:12:25;;;;;;;;;;;;;;;14.48;75.14;98288.59;6193160;23;19923;-93
2023/07/20 02:14:51;;;;;;;;;;;;;;;14.56;75.13;98295.81;6168617;23;19966;-91
2023/07/20 02:17:17;;;;;;;;;;;;;;;14.53;75.19;98285.56;6168842;23;19931;-92
2023/07/20 02:19:43;;;;;;;;;;;;;;;14.56;75.25;98293.06;6192904;23;19919;-91
2023/07/20 02:22:09;;;;;;;;;;;;;;;14.57;75.03;98289.19;6168381;23;20246;-91
2023/07/20 02:24:34;;;;;;;;;;;;;;;14.62;74.93;98293.59;6169380;23;19915;-91
2023/07/20 02:27:02;;;;;;;;;;;;;;;14.62;75.00;98297.13;6192666;23;19919;-91
2023/07/20 02:29:30;;;;;;;;;;;;;;;14.59;75.15;98294.31;6169017;23;19943;-90
2023/07/20 02:31:56;;;;;;;;;;;;;;;14.63;75.20;98295.94;6195822;23;19919;-92
2023/07/20 02:34:22;;;;;;;;;;;;;;;14.59;75.14;98299.81;6215930;22;19973;-91
2023/07/20 02:36:48;;;;;;;;;;;;;;;14.56;75.13;98302.13;6228317;22;20002;-96
2023/07/20 02:39:14;;;;;;;;;;;;;;;14.59;75.73;98302.56;6226246;22;19915;-91
2023/07/20 02:41:40;;;;;;;;;;;;;;;14.66;75.27;98297.19;6225451;22;19942;-90
2023/07/20 02:44:06;;;;;;;;;;;;;;;14.62;75.26;98294.38;6224579;22;19972;-90
2023/07/20 02:46:32;;;;;;;;;;;;;;;14.60;75.12;98299.44;6250518;22;20234;-91
2023/07/20 02:48:59;;;;;;;;;;;;;;;14.65;75.17;98303.84;6226710;22;19919;-91
2023/07/20 02:51:25;;;;;;;;;;;;;;;14.62;75.03;98308.13;6225317;22;19931;-90
2023/07/20 02:53:51;;;;;;;;;;;;;;;14.69;74.76;98307.47;6250637;22;19961;-90
2023/07/20 02:56:17;;;;;;;;;;;;;;;14.70;75.02;98315.38;6225042;22;19927;-92
2023/07/20 02:58:45;;;;;;;;;;;;;;;14.80;74.65;98311.19;6224324;22;19923;-92
2023/07/20 03:01:12;;;;;;;;;;;;;;;14.87;74.69;98310.56;6224213;22;19919;-92
2023/07/20 03:03:46;;;;;;;;;;;;;;;14.89;74.21;98320.00;6224059;22;19920;-91
2023/07/20 03:06:15;;;;;;;;;;;;;;;14.93;74.43;98312.63;6224484;22;19941;-92
2023/07/20 03:08:41;;;;;;;;;;;;;;;15.02;74.16;98315.13;6225313;22;19967;-90
2023/07/20 03:11:07;;;;;;;;;;;;;;;14.99;74.30;98316.66;6251126;22;19965;-91
2023/07/20 03:13:33;;;;;;;;;;;;;;;15.06;73.80;98315.97;6254232;22;20288;-91
2023/07/20 03:15:59;;;;;;;;;;;;;;;15.12;73.92;98331.03;6251262;22;19919;-91
2023/07/20 03:18:29;;;;;;;;;;;;;;;15.19;73.97;98330.34;6171355;23;19924;-89
2023/07/20 03:20:55;;;;;;;;;;;;;;;15.17;73.35;98332.69;6194626;23;19926;-89
2023/07/20 03:23:22;;;;;;;;;;;;;;;15.21;73.00;98325.28;6194413;23;19920;-89
2023/07/20 03:26:03;;;;;;;;;;;;;;;15.25;73.35;98332.44;6192907;23;19954;-92
2023/07/20 03:28:30;;;;;;;;;;;;;;;15.25;73.46;98328.88;6194987;23;19950;-91
2023/07/20 03:31:00;;;;;;;;;;;;;;;15.26;73.06;98334.03;6170037;23;19930;-89
2023/07/20 03:33:29;;;;;;;;;;;;;;;15.32;72.78;98333.72;6195188;23;20305;-88
2023/07/20 03:35:57;;;;;;;;;;;;;;;15.34;72.71;98331.41;6218904;23;19970;-89
2023/07/20 03:38:24;;;;;;;;;;;;;;;15.38;72.81;98335.78;6220804;23;19919;-90
2023/07/20 03:40:51;;;;;;;;;;;;;;;15.39;72.73;98325.56;6195914;23;19927;-90
2023/07/20 03:43:17;;;;;;;;;;;;;;;15.45;71.64;98318.59;6194795;23;19930;-90
2023/07/20 03:45:43;;;;;;;;;;;;;;;15.51;72.14;98326.16;6195766;23;19951;-90
2023/07/20 03:48:09;;;;;;;;;;;;;;;15.53;72.25;98328.56;6221900;23;19942;-88
2023/07/20 03:50:35;;;;;;;;;;;;;;;15.57;72.25;98321.16;6276794;22;19919;-89
2023/07/20 03:53:00;;;;;;;;;;;;;;;15.62;72.14;98323.56;6226204;22;19919;-88
2023/07/20 03:55:35;;;;;;;;;;;;;;;15.67;71.38;98328.81;6232617;22;19923;-89
2023/07/20 03:58:01;;;;;;;;;;;;;;;15.76;71.49;98320.28;6280355;22;19997;-88
2023/07/20 04:00:27;;;;;;;;;;;;;;;15.76;71.38;98331.31;6277270;22;20312;-89
2023/07/20 04:02:53;;;;;;;;;;;;;;;15.86;70.75;98332.59;6228758;22;19946;-88
2023/07/20 04:05:48;;;;;;;;;;;;;;;15.90;70.09;98325.97;6227693;22;20246;-92
2023/07/20 04:08:13;;;;;;;;;;;;;;;16.02;71.30;98337.94;6253065;22;19926;-90
2023/07/20 04:10:39;;;;;;;;;;;;;;;16.11;70.31;98333.75;6232442;22;19920;-89
2023/07/20 04:13:07;;;;;;;;;;;;;;;16.15;69.85;98334.56;6255198;22;19919;-88
2023/07/20 04:15:39;;;;;;;;;;;;;;;16.25;69.24;98335.09;6249779;22;19919;-89
2023/07/20 04:18:05;;;;;;;;;;;;;;;16.36;69.57;98327.75;6280336;22;19943;-87
2023/07/20 04:20:30;;;;;;;;;;;;;;;16.44;68.38;98329.41;6228067;22;20243;-89
2023/07/20 04:22:56;;;;;;;;;;;;;;;16.61;68.05;98341.84;6256185;22;19930;-88
2023/07/20 04:25:23;;;;;;;;;;;;;;;16.62;67.37;98338.72;6229667;22;19919;-89
2023/07/20 04:27:51;;;;;;;;;;;;;;;16.68;67.50;98342.69;6280857;22;19919;-89
2023/07/20 04:30:22;;;;;;;;;;;;;;;16.65;66.94;98356.47;6228838;22;20345;-90
2023/07/20 04:32:48;;;;;;;;;;;;;;;16.68;67.07;98347.44;6277779;22;19919;-87
2023/07/20 04:35:37;;;;;;;;;;;;;;;16.68;66.77;98344.66;6278202;22;19951;-89
2023/07/20 04:38:04;;;;;;;;;;;;;;;16.70;67.13;98344.31;6228455;22;19919;-89
2023/07/20 04:40:30;;;;;;;;;;;;;;;16.70;67.61;98355.34;6253732;22;20369;-93
2023/07/20 04:42:55;;;;;;;;;;;;;;;16.59;67.38;98349.72;6253664;22;19946;-90
2023/07/20 04:45:23;;;;;;;;;;;;;;;16.68;67.68;98339.16;6231560;22;20269;-91
2023/07/20 04:47:52;;;;;;;;;;;;;;;16.70;67.75;98341.56;6253174;22;19926;-90
2023/07/20 04:50:21;;;;;;;;;;;;;;;16.77;67.41;98344.41;6227611;22;19919;-89
2023/07/20 04:52:48;;;;;;;;;;;;;;;16.77;66.82;98347.97;6227481;22;19942;-90
2023/07/20 04:55:18;;;;;;;;;;;;;;;16.87;66.47;98346.50;6257140;22;19927;-88
2023/07/20 04:57:44;;;;;;;;;;;;;;;16.89;66.00;98350.47;6242322;23;20442;-89
2023/07/20 05:00:14;;;;;;;;;;;;;;;16.96;65.99;98341.47;6198188;23;19920;-88
2023/07/20 05:02:40;;;;;;;;;;;;;;;16.99;66.10;98354.50;6249080;23;19966;-88
2023/07/20 05:05:06;;;;;;;;;;;;;;;17.10;66.07;98349.88;6200743;23;19915;-88
2023/07/20 05:07:34;;;;;;;;;;;;;;;17.16;64.55;98344.81;6227546;23;19946;-87
2023/07/20 05:10:05;;;;;;;;;;;;;;;17.23;63.99;98353.16;6229841;23;19924;-88
2023/07/20 05:12:31;;;;;;;;;;;;;;;17.26;64.29;98352.41;6225061;23;20346;-88
2023/07/20 05:15:06;;;;;;;;;;;;;;;17.28;62.87;98346.47;6224552;23;19923;-88
2023/07/20 05:17:34;;;;;;;;;;;;;;;17.28;63.67;98347.25;6224675;23;19919;-90
2023/07/20 05:20:01;;;;;;;;;;;;;;;17.32;63.21;98348.09;6228974;23;19919;-89
2023/07/20 05:22:31;;;;;;;;;;;;;;;17.48;63.93;98352.56;6247165;23;19954;-89
2023/07/20 05:24:57;;;;;;;;;;;;;;;17.55;63.26;98345.13;6201546;23;19928;-87
2023/07/20 05:27:24;;;;;;;;;;;;;;;17.66;63.30;98350.75;6222297;23;19919;-88
2023/07/20 05:29:50;;;;;;;;;;;;;;;17.70;63.37;98356.28;6198677;23;19926;-88
2023/07/20 05:32:16;;;;;;;;;;;;;;;17.68;62.39;98348.41;6222172;23;19950;-90
2023/07/20 05:34:45;;;;;;;;;;;;;;;17.82;63.05;98344.97;6203842;23;19919;-90
2023/07/20 05:37:10;;;;;;;;;;;;;;;17.89;61.53;98367.13;6223813;23;20246;-87
2023/07/20 05:39:37;;;;;;;;;;;;;;;17.82;59.75;98353.25;6254220;22;19998;-86
2023/07/20 05:42:03;;;;;;;;;;;;;;;17.87;59.29;98352.09;6262546;22;20303;-88
2023/07/20 05:44:28;;;;;;;;;;;;;;;17.90;59.43;98354.09;6280934;22;20273;-88
2023/07/20 05:46:54;;;;;;;;;;;;;;;17.99;59.44;98360.06;6279928;22;19998;-88
2023/07/20 05:49:20;;;;;;;;;;;;;;;18.08;59.76;98349.47;6255398;22;20300;-91
2023/07/20 05:51:49;;;;;;;;;;;;;;;18.13;58.42;98353.84;6229470;22;20242;-88
2023/07/20 05:54:14;;;;;;;;;;;;;;;18.26;60.38;98352.31;6280092;22;20068;-87
2023/07/20 05:56:41;;;;;;;;;;;;;;;18.34;58.47;98355.91;6282297;22;19923;-87
2023/07/20 05:59:19;;;;;;;;;;;;;;;18.38;58.15;98357.53;6252826;22;19922;-89
2023/07/20 06:05:11;;;;;;;;;;;;;;;18.78;57.33;98350.97;6343484;22;19997;-89
2023/07/20 06:07:50;;;;;;;;;;;;;;;19.07;57.45;98361.31;6260916;22;19964;-93
2023/07/20 06:16:54;;;;;;;;;;;;;;;19.49;56.23;98352.25;6279847;22;19927;-94
2023/07/20 06:19:44;;;;;;;;;;;;;;;19.47;53.01;98362.97;6228665;22;20495;-88
2023/07/20 06:22:10;;;;;;;;;;;;;;;19.44;52.76;98364.53;6276021;22;19923;-91
2023/07/20 06:24:36;;;;;;;;;;;;;;;19.57;53.01;98362.16;6276847;22;19941;-92
2023/07/20 06:27:40;;;;;;;;;;;;;;;19.66;52.86;98359.00;6227990;22;19919;-93
2023/07/20 06:32:55;;;;;;;;;;;;;;;19.62;51.20;98363.72;6311330;22;19923;-93
2023/07/20 06:35:24;;;;;;;;;;;;;;;19.48;51.57;98345.91;6242684;22;19919;-90
2023/07/20 06:37:53;;;;;;;;;;;;;;;19.52;53.17;98362.53;6213629;22;19945;-93
2023/07/20 06:40:20;;;;;;;;;;;;;;;19.60;52.45;98364.16;6276588;22;19919;-94
2023/07/20 06:45:31;;;;;;;;;;;;;;;19.59;50.02;98358.97;6289525;22;20314;-93
2023/07/20 06:48:06;;;;;;;;;;;;;;;19.65;50.25;98365.75;6229908;22;19919;-91
2023/07/20 06:50:32;;;;;;;;;;;;;;;19.88;50.43;98373.66;6226049;22;19977;-92
2023/07/20 06:53:07;;;;;;;;;;;;;;;19.97;49.56;98357.41;6263611;22;20335;-87
2023/07/20 06:55:34;;;;;;;;;;;;;;;19.92;48.15;98372.44;6224491;22;19946;-89
2023/07/20 06:58:00;;;;;;;;;;;;;;;19.94;49.45;98363.75;6194933;22;19923;-86
2023/07/20 07:00:35;;;;;;;;;;;;;;;20.08;49.50;98374.00;6195668;22;20357;-89
2023/07/20 07:03:01;;;;;;;;;;;;;;;20.10;48.39;98377.97;6224364;22;19923;-88
2023/07/20 07:05:26;;;;;;;;;;;;;;;20.11;48.82;98379.56;6248917;22;19927;-90
2023/07/20 07:07:56;;;;;;;;;;;;;;;20.19;48.60;98378.31;6248761;22;20258;-86
2023/07/20 07:10:22;;;;;;;;;;;;;;;20.24;48.21;98373.59;6250392;22;20342;-86
2023/07/20 07:12:47;;;;;;;;;;;;;;;20.23;46.66;98364.47;6250983;22;19926;-87
2023/07/20 07:15:22;;;;;;;;;;;;;;;20.15;48.63;98368.44;6224319;22;19920;-87
2023/07/20 07:17:48;;;;;;;;;;;;;;;20.17;47.62;98363.28;6227329;22;20403;-86
2023/07/20 07:20:14;;;;;;;;;;;;;;;20.21;49.38;98361.28;6282776;22;19919;-88
2023/07/20 07:23:05;;;;;;;;;;;;;;;20.30;47.64;98375.53;6250109;22;19969;-89
2023/07/20 07:25:32;;;;;;;;;;;;;;;20.42;49.37;98383.41;6225539;22;19927;-86
2023/07/20 07:27:59;;;;;;;;;;;;;;;20.54;49.62;98376.69;6277642;22;20002;-91
2023/07/20 07:30:28;;;;;;;;;;;;;;;20.61;48.05;98378.63;6227558;22;19919;-90
2023/07/20 07:36:29;;;;;;;;;;;;;;;20.75;46.10;98400.78;6245890;23;19920;-88
2023/07/20 07:38:58;;;;;;;;;;;;;;;20.87;45.39;98380.88;6194086;23;19920;-89
2023/07/20 07:41:30;;;;;;;;;;;;;;;20.83;45.54;98402.34;6193133;23;19920;-87
2023/07/20 07:46:30;;;;;;;;;;;;;;;20.93;46.61;98380.47;6219784;23;20372;-87
2023/07/20 07:49:29;;;;;;;;;;;;;;;21.12;45.11;98374.38;6217543;23;19947;-88
2023/07/20 07:51:54;;;;;;;;;;;;;;;21.18;44.47;98378.31;6248424;23;19965;-88
2023/07/20 07:54:29;;;;;;;;;;;;;;;21.13;45.81;98380.75;6195782;23;19920;-87
2023/07/20 07:57:20;;;;;;;;;;;;;;;21.15;44.08;98378.34;6219481;23;19919;-88
2023/07/20 08:00:15;;;;;;;;;;;;;;;21.06;43.49;98381.59;6219715;23;19924;-86
2023/07/20 08:02:42;;;;;;;;;;;;;;;21.00;44.95;98388.78;6220396;23;19924;-88
2023/07/20 08:05:14;;;;;;;;;;;;;;;21.01;45.77;98385.56;6194552;23;19919;-88
2023/07/20 08:08:12;;;;;;;;;;;;;;;21.12;46.45;98379.94;6249018;23;20336;-92
2023/07/20 08:11:14;;;;;;;;;;;;;;;21.09;44.76;98377.97;6197954;23;19926;-91
2023/07/20 08:14:11;;;;;;;;;;;;;;;21.30;45.94;98391.75;6239208;22;19956;-92
2023/07/20 08:16:37;;;;;;;;;;;;;;;21.47;44.03;98378.94;6146594;23;19920;-92
2023/07/20 08:19:13;;;;;;;;;;;;;;;21.58;44.44;98385.22;6146814;23;19920;-92
2023/07/20 08:22:42;;;;;;;;;;;;;;;21.58;43.92;98389.97;6195392;23;19919;-93
2023/07/20 08:25:21;;;;;;;;;;;;;;;;;;;;;
2023/07/20 08:28:00;;;;;;;;;;;;;;;21.38;45.23;98391.72;6239080;22;19931;-94
2023/07/20 08:33:39;;;;;;;;;;;;;;;21.39;45.55;98387.75;6132852;23;19925;-89
2023/07/20 08:36:32;;;;;;;;;;;;;;;21.40;43.89;98392.13;6110206;23;19920;-93
2023/07/20 08:39:03;;;;;;;;;;;;;;;21.26;43.57;98398.53;6000247;23;19926;-93
2023/07/20 08:41:33;;;;;;;;;;;;;;;21.10;44.46;98390.69;6017411;23;20264;-90
2023/07/20 08:44:07;;;;;;;;;;;;;;;21.20;44.92;98395.41;5995533;23;20352;-92
2023/07/20 08:46:51;;;;;;;;;;;;;;;21.24;45.03;98385.03;6067602;23;19921;-94
2023/07/20 08:49:18;;;;;;;;;;;;;;;21.14;45.60;98385.91;6018860;23;19929;-89
2023/07/20 08:51:46;;;;;;;;;;;;;;;21.05;46.17;98386.34;6057600;22;19939;-89
2023/07/20 08:54:13;;;;;;;;;;;;;;;21.01;45.55;98391.13;6240151;23;19951;-91
2023/07/20 08:56:43;;;;;;;;;;;;;;;21.10;46.27;98380.38;6197240;23;19935;-86
2023/07/20 09:02:51;;;;;;;;;;;;;;;21.47;44.56;98392.06;6276989;22;19930;-89
2023/07/20 09:14:37;;;;;;;;;;;;;;;21.42;44.78;98384.94;6198851;23;19938;-93
2023/07/20 09:17:05;;;;;;;;;;;;;;;21.28;43.67;98388.56;6149617;23;19951;-94
2023/07/20 09:19:47;;;;;;;;;;;;;;;21.24;44.57;98382.25;6152781;23;19919;-93
2023/07/20 09:22:43;;;;;;;;;;;;;;;21.16;45.58;98382.69;6194822;23;19966;-94
2023/07/20 09:25:14;;;;;;;;;;;;;;;21.19;47.17;98384.66;6194865;23;20007;-92
2023/07/20 09:30:58;;;;;;;;;;;;;;;21.69;44.71;98381.53;6209342;22;20644;-93
2023/07/20 09:33:39;;;;;;;;;;;;;;;21.65;46.97;98395.47;6242874;22;19971;-90
2023/07/20 09:36:05;;;;;;;;;;;;;;;21.54;45.84;98390.00;6239959;22;20046;-92
2023/07/20 09:39:00;;;;;;;;;;;;;;;21.39;46.75;98388.56;6253742;22;20257;-91
2023/07/20 09:41:26;;;;;;;;;;;;;;;21.22;49.32;98400.53;6263186;22;19923;-90
2023/07/20 09:44:10;;;;;;;;;;;;;;;21.21;50.83;98398.97;6289747;22;19975;-94
2023/07/20 09:47:01;;;;;;;;;;;;;;;21.00;52.35;98405.44;6237353;22;19918;-93
2023/07/20 09:53:33;;;;;;;;;;;;;;;20.28;58.40;98422.31;6228104;22;19923;-93
2023/07/20 09:56:05;;;;;;;;;;;;;;;20.10;60.63;98404.94;6224918;22;19941;-91
2023/07/20 09:58:34;;;;;;;;;;;;;;;20.00;60.72;98400.97;6223727;22;19919;-89
2023/07/20 10:01:03;;;;;;;;;;;;;;;20.22;62.54;98400.94;6224191;22;19919;-90
2023/07/20 10:03:54;;;;;;;;;;;;;;;20.55;61.61;98403.25;6252696;22;19926;-91
2023/07/20 10:06:23;;;;;;;;;;;;;;;20.76;53.96;98405.16;6253318;22;19926;-91
2023/07/20 10:08:52;;;;;;;;;;;;;;;20.75;53.25;98400.00;6226935;22;19919;-91
2023/07/20 10:11:57;;;;;;;;;;;;;;;20.84;58.09;98395.59;6285627;22;19919;-92
2023/07/20 10:18:23;;;;;;;;;;;;;;;20.82;60.48;98400.75;6282955;22;20379;-86
2023/07/20 10:20:51;;;;;;;;;;;;;;;20.94;57.80;98391.19;6231465;22;19930;-90
2023/07/20 10:23:17;;;;;;;;;;;;;;;21.05;56.42;98391.09;6230963;22;19919;-92
2023/07/20 10:25:46;;;;;;;;;;;;;;;21.03;54.60;98388.75;6210083;22;19930;-91
2023/07/20 10:28:13;;;;;;;;;;;;;;;21.06;52.35;98398.28;6226894;22;19923;-92
2023/07/20 10:38:08;;;;;;;;;;;;;;;20.95;49.49;98403.06;6278419;22;19930;-89
2023/07/20 10:40:59;;;;;;;;;;;;;;;20.89;51.34;98405.47;6256534;22;20048;-88
2023/07/20 10:43:50;;;;;;;;;;;;;;;20.72;50.50;98396.03;6241437;23;19923;-89
2023/07/20 10:47:15;;;;;;;;;;;;;;;20.79;49.68;98398.78;6205075;23;19927;-90
2023/07/20 10:50:09;;;;;;;;;;;;;;;20.95;50.70;98401.09;6251678;22;19927;-90
2023/07/20 10:52:39;;;;;;;;;;;;;;;21.42;50.28;98395.25;6261461;22;19926;-88
2023/07/20 10:55:43;;;;;;;;;;;;;;;21.53;50.38;98407.91;6230532;22;19916;-89
2023/07/20 10:58:14;;;;;;;;;;;;;;;21.78;51.05;98402.13;6292880;22;19919;-89
2023/07/20 11:04:08;;;;;;;;;;;;;;;22.33;48.68;98389.31;6261459;22;19926;-87
2023/07/20 11:06:34;;;;;;;;;;;;;;;22.52;45.86;98401.84;6237023;22;19938;-90
2023/07/20 11:09:16;;;;;;;;;;;;;;;22.61;43.73;98390.19;6261024;22;19927;-90
2023/07/20 11:11:42;;;;;;;;;;;;;;;22.81;41.49;98390.34;6260067;22;19923;-92
2023/07/20 11:14:21;;;;;;;;;;;;;;;22.87;39.85;98391.44;6252859;22;20013;-90
2023/07/20 11:16:48;;;;;;;;;;;;;;;23.21;39.59;98381.06;6226620;22;19921;-91
2023/07/20 11:19:27;;;;;;;;;;;;;;;23.43;38.89;98401.03;6206933;22;19919;-91
2023/07/20 11:22:30;;;;;;;;;;;;;;;23.25;40.62;98385.78;6152797;23;19932;-90
2023/07/20 11:25:05;;;;;;;;;;;;;;;23.12;40.76;98382.78;6114405;23;19947;-90
2023/07/20 11:27:31;;;;;;;;;;;;;;;23.00;41.58;98391.72;6189481;23;19974;-90
2023/07/20 11:30:15;;;;;;;;;;;;;;;22.70;40.51;98402.41;6185810;23;19998;-88
2023/07/20 11:36:08;;;;;;;;;;;;;;;22.32;44.26;98418.38;6190218;23;19931;-90
2023/07/20 11:38:36;;;;;;;;;;;;;;;22.24;45.50;98423.19;6141608;23;20007;-92
2023/07/20 11:41:11;;;;;;;;;;;;;;;22.27;47.13;98416.81;6144430;23;20308;-90
2023/07/20 11:43:45;;;;;;;;;;;;;;;22.17;45.41;98420.50;6166446;23;19920;-89
2023/07/20 11:46:17;;;;;;;;;;;;;;;22.23;44.39;98437.53;6186771;23;19927;-93
2023/07/20 11:48:43;;;;;;;;;;;;;;;22.39;44.43;98446.13;6145814;23;19920;-87
2023/07/20 11:55:06;;;;;;;;;;;;;;;23.02;44.61;98425.53;6218695;23;20389;-91
2023/07/20 11:57:32;;;;;;;;;;;;;;;23.23;42.97;98418.88;6188894;23;19920;-89
2023/07/20 12:00:04;;;;;;;;;;;;;;;23.34;42.56;98416.72;6189408;23;19966;-90
2023/07/20 12:02:41;;;;;;;;;;;;;;;23.35;41.04;98418.31;6191891;23;20586;-88
2023/07/20 12:05:08;;;;;;;;;;;;;;;23.33;40.27;98406.78;6142841;23;20363;-90
2023/07/20 12:07:38;;;;;;;;;;;;;;;23.13;43.15;98415.03;6221345;23;19919;-93
2023/07/20 12:18:35;;;;;;;;;;;;;;;21.38;51.34;98439.00;6276711;22;19911;-89
2023/07/20 12:21:01;;;;;;;;;;;;;;;20.93;55.41;98463.81;6227145;22;19983;-91
2023/07/20 12:23:34;;;;;;;;;;;;;;;20.55;56.63;98458.78;6226523;22;19993;-91
2023/07/20 12:38:44;;;;;;;;;;;;;;;21.08;57.76;98445.88;6310051;22;19929;-93
2023/07/20 12:44:00;;;;;;;;;;;;;;;21.40;56.46;98433.81;6281360;22;19943;-93
2023/07/20 13:27:51;;;;;;;;;;;;;;;21.78;53.11;98418.81;6307352;22;19923;-93
2023/07/20 13:31:44;;;;;;;;;;;;;;;21.81;51.43;98418.00;6249118;23;19973;-95
2023/07/20 13:35:15;;;;;;;;;;;;;;;21.62;54.78;98415.75;6208311;22;19923;-92
2023/07/20 13:40:29;;;;;;;;;;;;;;;21.75;53.19;98416.84;6136780;23;19955;-92
2023/07/20 13:47:10;;;;;;;;;;;;;;;21.94;50.53;98412.72;6248512;22;19923;-93
2023/07/20 13:49:39;;;;;;;;;;;;;;;21.86;51.11;98410.44;6257235;22;19966;-89
2023/07/20 13:52:14;;;;;;;;;;;;;;;22.21;51.19;98409.31;6276405;22;19926;-89
2023/07/20 13:54:43;;;;;;;;;;;;;;;22.55;48.44;98401.00;6249280;22;19929;-93
2023/07/20 13:57:14;;;;;;;;;;;;;;;22.66;47.65;98401.66;6225089;22;20506;-92
2023/07/20 13:59:41;;;;;;;;;;;;;;;22.66;45.93;98404.44;6202173;22;19919;-89
2023/07/20 14:05:25;;;;;;;;;;;;;;;22.91;46.09;98395.78;6220353;23;19927;-91
2023/07/20 14:08:31;;;;;;;;;;;;;;;22.92;45.06;98391.00;6247550;23;19947;-95
2023/07/20 14:11:34;;;;;;;;;;;;;;;22.90;46.00;98396.19;6222664;23;19939;-93
2023/07/20 14:14:02;;;;;;;;;;;;;;;22.62;46.81;98405.72;6243859;23;20310;-94
2023/07/20 14:16:59;;;;;;;;;;;;;;;22.43;46.74;98407.91;6205163;22;19928;-91
2023/07/20 14:19:53;;;;;;;;;;;;;;;22.17;48.27;98403.00;6246319;23;20313;-92
2023/07/20 14:22:19;;;;;;;;;;;;;;;21.96;47.74;98403.97;6222958;23;19930;-91
2023/07/20 14:24:57;;;;;;;;;;;;;;;22.23;48.85;98404.16;6197211;23;19919;-88
2023/07/20 14:27:46;;;;;;;;;;;;;;;22.13;47.61;98405.00;6222459;23;19927;-90
2023/07/20 14:30:13;;;;;;;;;;;;;;;22.01;48.06;98409.88;6155009;23;19920;-89
2023/07/20 14:32:40;;;;;;;;;;;;;;;21.88;48.35;98413.59;6132733;23;19926;-91
2023/07/20 14:35:12;;;;;;;;;;;;;;;21.71;47.99;98404.97;6108237;23;19925;-89
2023/07/20 14:38:03;;;;;;;;;;;;;;;21.76;48.84;98420.44;6110225;23;19926;-91
2023/07/20 14:40:29;;;;;;;;;;;;;;;21.87;49.48;98412.78;6232486;22;20013;-90
2023/07/20 14:43:00;;;;;;;;;;;;;;;22.01;48.74;98409.09;6284350;22;19923;-90
2023/07/20 14:55:18;;;;;;;;;;;;;;;21.47;47.60;98411.53;6305465;22;19950;-88
2023/07/20 14:57:48;;;;;;;;;;;;;;;21.35;47.62;98419.13;6287106;22;19926;-90
2023/07/20 15:00:20;;;;;;;;;;;;;;;21.28;49.21;98416.38;6243883;22;19929;-92
2023/07/20 15:02:49;;;;;;;;;;;;;;;21.58;48.71;98415.78;6263935;22;20349;-90
2023/07/20 15:05:30;;;;;;;;;;;;;;;21.81;47.95;98418.00;6258062;22;19915;-90
2023/07/20 15:07:56;;;;;;;;;;;;;;;21.76;49.63;98421.25;6255497;22;19958;-92
2023/07/20 15:10:22;;;;;;;;;;;;;;;21.84;48.26;98410.03;6233108;22;20337;-87
2023/07/20 15:13:25;;;;;;;;;;;;;;;21.64;47.78;98407.03;6282830;22;19949;-90
2023/07/20 15:16:17;;;;;;;;;;;;;;;21.61;47.08;98400.28;6313022;22;19987;-88
2023/07/20 15:18:47;;;;;;;;;;;;;;;21.94;46.29;98415.50;6229893;22;19919;-91
2023/07/20 15:21:14;;;;;;;;;;;;;;;21.70;46.43;98406.19;6255074;22;19930;-91
2023/07/20 15:24:08;;;;;;;;;;;;;;;21.94;45.54;98415.50;6283797;22;19926;-91
2023/07/20 15:27:11;;;;;;;;;;;;;;;22.25;46.41;98415.63;6233565;22;19919;-91
2023/07/20 15:29:37;;;;;;;;;;;;;;;22.42;45.68;98428.59;6259303;22;19942;-89
2023/07/20 15:32:04;;;;;;;;;;;;;;;22.43;45.25;98423.81;6241849;22;19998;-90
2023/07/20 15:34:33;;;;;;;;;;;;;;;22.49;45.64;98424.94;6233562;22;20338;-90
2023/07/20 15:36:59;;;;;;;;;;;;;;;22.56;45.65;98430.44;6249319;22;20349;-92
2023/07/20 15:39:26;;;;;;;;;;;;;;;22.63;46.50;98435.94;6201529;22;19927;-92
2023/07/20 15:41:52;;;;;;;;;;;;;;;22.69;46.03;98425.91;6231029;22;19919;-91
2023/07/20 15:44:19;;;;;;;;;;;;;;;22.70;46.52;98418.34;6229955;22;19930;-90
2023/07/20 15:46:46;;;;;;;;;;;;;;;22.80;45.05;98420.19;6229716;22;19919;-89
2023/07/20 15:49:12;;;;;;;;;;;;;;;22.80;46.43;98422.97;6231182;22;20361;-89